createdAt,value
2018-08-22T00:01:26.919Z,24.37
2018-08-22T00:04:02.200Z,14.03
2018-08-22T00:06:31.905Z,13.97
2018-08-22T00:09:03.429Z,15.47
2018-08-22T00:11:36.143Z,15.43
2018-08-22T00:14:09.454Z,31.77
2018-08-22T00:16:42.334Z,27.50
2018-08-22T00:19:12.351Z,18.53
2018-08-22T00:21:45.133Z,31.77
2018-08-22T00:24:19.327Z,17.97
2018-08-22T00:26:50.310Z,11.63
2018-08-22T00:29:25.818Z,11.40
2018-08-22T00:31:59.867Z,13.50
2018-08-22T00:37:13.797Z,20.00
2018-08-22T00:39:44.856Z,23.00
2018-08-22T00:42:22.407Z,31.63
2018-08-22T00:44:54.632Z,19.73
2018-08-22T00:47:30.858Z,27.00
2018-08-22T00:50:07.227Z,18.00
2018-08-22T00:52:40.091Z,17.60
2018-08-22T00:55:16.472Z,13.33
2018-08-22T00:57:52.572Z,13.63
2018-08-22T01:00:26.410Z,14.43
2018-08-22T01:02:59.382Z,14.70
2018-08-22T01:05:37.407Z,11.47
2018-08-22T01:08:13.827Z,14.70
2018-08-22T01:10:51.200Z,14.37
2018-08-22T01:13:23.726Z,13.37
2018-08-22T01:16:01.832Z,22.90
2018-08-22T01:18:36.679Z,22.17
2018-08-22T01:21:13.831Z,16.43
2018-08-22T01:23:49.346Z,22.83
2018-08-22T01:26:27.058Z,15.37
2018-08-22T01:29:01.041Z,15.10
2018-08-22T01:31:34.238Z,19.23
2018-08-22T01:34:07.537Z,22.13
2018-08-22T01:36:42.412Z,17.20
2018-08-22T01:39:17.933Z,19.17
2018-08-22T01:41:51.250Z,13.70
2018-08-22T01:44:26.928Z,14.70
2018-08-22T01:46:57.188Z,20.37
2018-08-22T01:49:31.589Z,18.83
2018-08-22T01:52:02.883Z,16.23
2018-08-22T01:54:43.271Z,16.10
2018-08-22T01:57:17.212Z,24.37
2018-08-22T01:59:49.803Z,20.90
2018-08-22T02:02:24.423Z,16.33
2018-08-22T02:05:02.199Z,21.77
2018-08-22T02:07:33.062Z,19.53
2018-08-22T02:10:07.695Z,21.80
2018-08-22T02:12:51.462Z,28.60
2018-08-22T02:15:24.257Z,20.63
2018-08-22T02:17:59.985Z,15.70
2018-08-22T02:20:33.505Z,21.67
2018-08-22T02:23:05.903Z,21.37
2018-08-22T02:25:38.705Z,23.40
2018-08-22T02:28:17.350Z,19.50
2018-08-22T02:30:52.091Z,20.67
2018-08-22T02:33:34.131Z,19.83
2018-08-22T02:36:06.897Z,31.43
2018-08-22T02:38:42.111Z,25.13
2018-08-22T02:41:13.842Z,28.23
2018-08-22T02:43:46.717Z,26.97
2018-08-22T02:46:16.810Z,27.17
2018-08-22T02:48:51.633Z,28.73
2018-08-22T02:51:22.099Z,24.03
2018-08-22T02:53:55.503Z,23.73
2018-08-22T02:56:29.193Z,15.80
2018-08-22T02:59:00.422Z,24.20
2018-08-22T03:01:36.406Z,26.07
2018-08-22T03:04:09.493Z,38.50
2018-08-22T03:06:45.868Z,30.67
2018-08-22T03:09:21.938Z,36.00
2018-08-22T03:11:55.711Z,34.87
2018-08-22T03:14:31.958Z,35.97
2018-08-22T03:17:05.097Z,39.63
2018-08-22T03:19:37.783Z,32.50
2018-08-22T03:22:10.678Z,35.67
2018-08-22T03:24:45.014Z,33.47
2018-08-22T03:27:20.718Z,28.63
2018-08-22T03:29:56.814Z,16.20
2018-08-22T03:32:31.962Z,16.07
2018-08-22T03:35:03.127Z,17.87
2018-08-22T03:37:33.982Z,13.93
2018-08-22T03:40:05.761Z,17.50
2018-08-22T03:42:36.580Z,17.40
2018-08-22T03:45:10.047Z,14.40
2018-08-22T03:47:42.183Z,15.93
2018-08-22T03:50:12.444Z,19.03
2018-08-22T03:52:46.202Z,14.43
2018-08-22T03:55:23.888Z,14.17
2018-08-22T03:58:01.349Z,12.10
2018-08-22T04:00:35.731Z,12.80
2018-08-22T04:03:06.678Z,14.23
2018-08-22T04:05:44.934Z,18.00
2018-08-22T04:08:17.746Z,15.23
2018-08-22T04:11:01.264Z,13.83
2018-08-22T04:13:34.464Z,15.90
2018-08-22T04:16:09.173Z,18.03
2018-08-22T04:18:41.778Z,14.23
2018-08-22T04:21:15.632Z,13.30
2018-08-22T04:23:49.380Z,14.50
2018-08-22T04:26:25.386Z,13.43
2018-08-22T04:31:41.690Z,14.23
2018-08-22T04:34:23.267Z,17.87
2018-08-22T04:36:53.842Z,30.37
2018-08-22T04:39:26.587Z,24.37
2018-08-22T04:41:57.113Z,34.97
2018-08-22T04:44:32.692Z,23.73
2018-08-22T04:47:11.007Z,24.93
2018-08-22T04:49:46.050Z,16.23
2018-08-22T04:52:16.803Z,16.37
2018-08-22T04:54:49.001Z,16.13
2018-08-22T04:57:24.790Z,15.40
2018-08-22T05:00:04.746Z,16.60
2018-08-22T05:02:41.013Z,14.60
2018-08-22T05:05:12.763Z,14.30
2018-08-22T05:07:45.810Z,14.83
2018-08-22T05:10:18.581Z,13.27
2018-08-22T05:12:48.890Z,14.40
2018-08-22T05:15:24.988Z,15.87
2018-08-22T05:18:05.695Z,13.07
2018-08-22T05:20:39.031Z,11.97
2018-08-22T05:23:17.380Z,12.20
2018-08-22T05:25:51.851Z,15.30
2018-08-22T05:28:24.191Z,16.73
2018-08-22T05:30:56.408Z,14.90
2018-08-22T05:33:28.997Z,14.47
2018-08-22T05:36:02.671Z,15.23
2018-08-22T05:38:36.584Z,10.37
2018-08-22T05:41:08.161Z,12.50
2018-08-22T05:43:41.652Z,11.67
2018-08-22T05:46:17.702Z,18.47
2018-08-22T05:48:48.194Z,12.43
2018-08-22T05:51:21.370Z,15.40
2018-08-22T05:53:55.026Z,15.97
2018-08-22T05:57:31.094Z,16.73
2018-08-22T06:00:05.596Z,18.13
2018-08-22T06:02:37.856Z,12.83
2018-08-22T06:05:11.489Z,16.00
2018-08-22T06:07:44.970Z,14.70
2018-08-22T06:10:17.675Z,11.97
2018-08-22T06:12:53.545Z,20.17
2018-08-22T06:15:24.960Z,14.87
2018-08-22T06:17:58.267Z,14.97
2018-08-22T06:20:32.700Z,13.90
2018-08-22T06:23:04.071Z,14.00
2018-08-22T06:25:34.003Z,9.53
2018-08-22T06:28:08.137Z,14.97
2018-08-22T06:30:42.236Z,14.27
2018-08-22T06:33:15.163Z,11.17
2018-08-22T06:35:51.803Z,16.60
2018-08-22T06:38:25.681Z,11.33
2018-08-22T06:40:59.993Z,16.50
2018-08-22T06:43:34.156Z,13.57
2018-08-22T06:46:08.573Z,14.33
2018-08-22T06:48:47.364Z,11.00
2018-08-22T06:51:18.437Z,11.73
2018-08-22T06:53:56.686Z,14.50
2018-08-22T06:56:33.104Z,18.63
2018-08-22T06:59:09.462Z,9.23
2018-08-22T07:01:41.632Z,14.23
2018-08-22T07:04:13.282Z,11.50
2018-08-22T07:06:47.897Z,15.67
2018-08-22T07:09:19.048Z,13.90
2018-08-22T07:11:49.289Z,17.80
2018-08-22T07:14:20.343Z,13.00
2018-08-22T07:16:53.238Z,13.40
2018-08-22T07:19:27.881Z,11.57
2018-08-22T07:22:02.165Z,11.20
2018-08-22T07:24:33.035Z,14.00
2018-08-22T07:27:04.455Z,13.63
2018-08-22T07:29:38.050Z,12.70
2018-08-22T07:32:12.292Z,10.63
2018-08-22T07:34:50.623Z,11.67
2018-08-22T07:37:28.693Z,9.27
2018-08-22T07:40:01.389Z,10.70
2018-08-22T07:42:36.693Z,8.17
2018-08-22T07:45:07.176Z,9.80
2018-08-22T07:47:39.583Z,13.57
2018-08-22T07:50:11.104Z,11.23
2018-08-22T07:52:52.595Z,11.90
2018-08-22T07:55:32.198Z,13.23
2018-08-22T07:58:05.237Z,11.97
2018-08-22T08:00:42.100Z,11.70
2018-08-22T08:03:13.868Z,13.80
2018-08-22T08:05:47.942Z,13.80
2018-08-22T08:08:23.847Z,18.40
2018-08-22T08:10:58.336Z,13.97
2018-08-22T08:13:32.355Z,33.83
2018-08-22T08:16:07.426Z,33.43
2018-08-22T08:18:41.810Z,15.33
2018-08-22T08:21:13.190Z,12.20
2018-08-22T08:23:48.048Z,24.00
2018-08-22T08:26:19.708Z,19.00
2018-08-22T08:28:55.653Z,21.67
2018-08-22T08:31:28.091Z,15.07
2018-08-22T08:34:00.502Z,16.47
2018-08-22T08:36:30.941Z,21.17
2018-08-22T08:39:03.588Z,19.60
2018-08-22T08:41:37.794Z,20.50
2018-08-22T08:44:15.336Z,20.57
2018-08-22T08:46:47.869Z,17.77
2018-08-22T08:49:25.759Z,14.67
2018-08-22T08:52:05.540Z,10.60
2018-08-22T08:54:39.019Z,14.07
2018-08-22T08:57:11.363Z,9.60
2018-08-22T08:59:42.775Z,13.27
2018-08-22T09:02:16.780Z,9.03
2018-08-22T09:04:54.920Z,11.97
2018-08-22T09:07:30.117Z,12.27
2018-08-22T09:10:01.065Z,15.27
2018-08-22T09:12:36.035Z,18.20
2018-08-22T09:15:07.887Z,18.83
2018-08-22T09:17:37.347Z,15.30
2018-08-22T09:20:10.300Z,17.63
2018-08-22T09:22:48.200Z,15.83
2018-08-22T09:25:24.164Z,12.93
2018-08-22T09:27:56.491Z,12.33
2018-08-22T09:30:30.163Z,15.40
2018-08-22T09:33:03.566Z,37.10
2018-08-22T09:35:33.719Z,13.23
2018-08-22T09:38:06.406Z,11.63
2018-08-22T09:40:42.057Z,12.30
2018-08-22T09:43:13.699Z,12.83
2018-08-22T09:45:48.012Z,15.37
2018-08-22T09:48:21.479Z,13.77
2018-08-22T09:50:57.270Z,12.67
2018-08-22T09:53:30.716Z,14.80
2018-08-22T09:56:07.971Z,17.20
2018-08-22T09:58:39.109Z,12.27
2018-08-22T10:01:16.646Z,15.17
2018-08-22T10:03:58.875Z,13.43
2018-08-22T10:06:35.020Z,18.47
2018-08-22T10:09:14.889Z,17.37
2018-08-22T10:11:46.920Z,12.70
2018-08-22T10:14:20.429Z,15.67
2018-08-22T10:16:52.491Z,12.77
2018-08-22T10:19:30.477Z,13.00
2018-08-22T10:22:03.701Z,14.17
2018-08-22T10:24:35.678Z,11.27
2018-08-22T10:27:09.196Z,11.10
2018-08-22T10:29:42.984Z,17.37
2018-08-22T10:32:16.897Z,14.63
2018-08-22T10:34:49.499Z,13.43
2018-08-22T10:37:24.920Z,10.20
2018-08-22T10:39:57.633Z,13.47
2018-08-22T10:42:28.439Z,11.60
2018-08-22T10:45:04.795Z,12.73
2018-08-22T10:47:35.980Z,12.00
2018-08-22T10:50:12.037Z,9.60
2018-08-22T10:52:46.163Z,11.23
2018-08-22T10:55:21.767Z,16.00
2018-08-22T10:57:54.573Z,16.30
2018-08-22T11:00:24.565Z,16.80
2018-08-22T11:02:55.815Z,13.13
2018-08-22T11:05:27.358Z,13.67
2018-08-22T11:08:02.682Z,13.87
2018-08-22T11:10:34.596Z,13.60
2018-08-22T11:13:05.913Z,14.83
2018-08-22T11:15:39.498Z,11.63
2018-08-22T11:18:12.128Z,11.50
2018-08-22T11:20:49.011Z,12.67
2018-08-22T11:23:30.964Z,10.03
2018-08-22T11:26:14.608Z,13.27
2018-08-22T11:28:56.834Z,11.30
2018-08-22T11:31:39.239Z,15.93
2018-08-22T11:34:22.063Z,12.80
2018-08-22T11:37:19.892Z,13.27
2018-08-22T11:39:53.147Z,9.97
2018-08-22T11:42:29.583Z,12.97
2018-08-22T11:45:02.461Z,12.53
2018-08-22T11:47:35.648Z,14.23
2018-08-22T11:50:11.232Z,13.80
2018-08-22T11:52:41.883Z,8.37
2018-08-22T11:55:16.370Z,10.03
2018-08-22T11:57:50.716Z,11.13
2018-08-22T12:00:26.898Z,12.67
2018-08-22T12:03:02.912Z,10.70
2018-08-22T12:05:35.584Z,9.30
2018-08-22T12:08:11.229Z,11.27
2018-08-22T12:10:41.797Z,12.53
2018-08-22T12:13:21.665Z,11.73
2018-08-22T12:15:54.524Z,11.37
2018-08-22T12:18:28.999Z,11.57
2018-08-22T12:21:01.253Z,9.80
2018-08-22T12:23:36.089Z,14.23
2018-08-22T12:26:09.691Z,13.33
2018-08-22T12:28:40.335Z,16.60
2018-08-22T12:31:11.750Z,12.47
2018-08-22T12:33:45.462Z,11.70
2018-08-22T12:36:22.739Z,11.30
2018-08-22T12:38:59.540Z,12.87
2018-08-22T12:41:31.470Z,11.53
2018-08-22T12:44:05.256Z,10.33
2018-08-22T12:46:38.634Z,12.33
2018-08-22T12:49:14.286Z,8.98
2018-08-22T12:51:49.483Z,11.57
2018-08-22T12:54:30.767Z,10.65
2018-08-22T12:57:03.968Z,9.80
2018-08-22T12:59:35.759Z,14.95
2018-08-22T13:02:06.967Z,9.10
2018-08-22T13:04:41.095Z,10.45
2018-08-22T13:07:12.136Z,9.80
2018-08-22T13:09:51.057Z,11.45
2018-08-22T13:12:24.970Z,9.20
2018-08-22T13:14:56.918Z,14.78
2018-08-22T13:17:27.898Z,13.28
2018-08-22T13:20:02.136Z,11.33
2018-08-22T13:22:35.949Z,9.60
2018-08-22T13:25:09.875Z,9.15
2018-08-22T13:27:42.165Z,10.70
2018-08-22T13:30:14.993Z,11.75
2018-08-22T13:32:46.265Z,8.60
2018-08-22T13:35:16.400Z,11.73
2018-08-22T13:37:49.947Z,9.45
2018-08-22T13:40:20.671Z,10.82
2018-08-22T13:42:54.650Z,13.13
2018-08-22T13:45:26.276Z,8.23
2018-08-22T13:48:04.984Z,11.40
2018-08-22T13:50:43.069Z,13.43
2018-08-22T13:53:19.327Z,11.40
2018-08-22T13:55:50.072Z,11.95
2018-08-22T13:58:23.347Z,11.80
2018-08-22T14:00:56.967Z,10.55
2018-08-22T14:03:30.158Z,10.48
2018-08-22T14:06:12.151Z,13.58
2018-08-22T14:08:46.730Z,11.45
2018-08-22T14:11:18.677Z,8.63
2018-08-22T14:13:49.749Z,11.22
2018-08-22T14:16:23.405Z,10.63
2018-08-22T14:19:01.694Z,9.85
2018-08-22T14:21:34.402Z,12.55
2018-08-22T14:24:10.184Z,10.10
2018-08-22T14:26:42.591Z,10.28
2018-08-22T14:29:17.585Z,10.90
2018-08-22T14:31:48.761Z,10.65
2018-08-22T14:34:25.032Z,15.65
2018-08-22T14:36:57.865Z,11.50
2018-08-22T14:39:32.634Z,8.88
2018-08-22T14:42:04.080Z,12.20
2018-08-22T14:44:42.230Z,11.83
2018-08-22T14:47:12.914Z,12.13
2018-08-22T14:49:46.483Z,11.85
2018-08-22T14:52:21.100Z,12.93
2018-08-22T14:54:59.011Z,14.07
2018-08-22T14:57:30.344Z,11.60
2018-08-22T15:00:02.658Z,12.05
2018-08-22T15:02:40.311Z,9.43
2018-08-22T15:05:17.169Z,14.30
2018-08-22T15:07:50.399Z,12.23
2018-08-22T15:10:26.337Z,11.30
2018-08-22T15:12:57.308Z,13.70
2018-08-22T15:15:32.487Z,14.98
2018-08-22T15:18:08.864Z,13.40
2018-08-22T15:20:51.642Z,13.18
2018-08-22T15:23:23.718Z,22.67
2018-08-22T15:25:55.235Z,12.30
2018-08-22T15:28:28.536Z,11.05
2018-08-22T15:31:03.301Z,12.23
2018-08-22T15:33:46.937Z,13.55
2018-08-22T15:36:22.234Z,12.65
2018-08-22T15:38:56.628Z,12.58
2018-08-22T15:41:28.652Z,10.48
2018-08-22T15:44:00.706Z,10.05
2018-08-22T15:46:32.230Z,12.58
2018-08-22T15:49:09.313Z,10.78
2018-08-22T15:51:39.690Z,10.38
2018-08-22T15:54:17.788Z,8.58
2018-08-22T15:56:50.904Z,12.05
2018-08-22T15:59:26.915Z,12.90
2018-08-22T16:01:59.043Z,9.40
2018-08-22T16:04:34.948Z,14.60
2018-08-22T16:07:11.427Z,8.80
2018-08-22T16:09:46.646Z,11.95
2018-08-22T16:12:21.421Z,9.43
2018-08-22T16:14:55.367Z,10.32
2018-08-22T16:17:33.248Z,9.60
2018-08-22T16:20:07.365Z,9.30
2018-08-22T16:22:48.810Z,9.65
2018-08-22T16:25:24.218Z,8.75
2018-08-22T16:27:57.909Z,10.88
2018-08-22T16:30:36.126Z,12.03
2018-08-22T16:33:05.928Z,10.38
2018-08-22T16:35:38.547Z,9.37
2018-08-22T16:38:14.821Z,14.80
2018-08-22T16:40:55.081Z,11.77
2018-08-22T16:43:46.851Z,10.03
2018-08-22T16:53:11.749Z,8.50
2018-08-22T16:55:49.053Z,12.97
2018-08-22T16:58:22.063Z,10.97
2018-08-22T17:00:54.467Z,7.20
2018-08-22T17:03:25.761Z,12.40
2018-08-22T17:06:19.834Z,11.27
2018-08-22T17:08:52.310Z,9.80
2018-08-22T17:11:26.113Z,10.53
2018-08-22T17:13:59.962Z,10.00
2018-08-22T17:16:33.058Z,8.17
2018-08-22T17:19:08.266Z,13.60
2018-08-22T17:21:43.131Z,12.00
2018-08-22T17:24:15.142Z,8.53
2018-08-22T17:26:47.207Z,18.50
2018-08-22T17:36:14.986Z,9.63
2018-08-22T17:38:53.645Z,11.10
2018-08-22T17:41:30.975Z,8.93
2018-08-22T17:44:07.432Z,11.77
2018-08-22T17:46:50.370Z,11.13
2018-08-22T17:49:22.414Z,10.07
2018-08-22T17:52:16.021Z,12.10
2018-08-22T17:54:50.115Z,10.20
2018-08-22T17:57:28.262Z,9.17
2018-08-22T17:59:59.618Z,8.13
2018-08-22T18:02:35.682Z,8.97
2018-08-22T18:05:07.657Z,10.60
2018-08-22T18:07:38.192Z,10.60
2018-08-22T18:10:13.333Z,9.60
2018-08-22T18:12:49.512Z,9.70
2018-08-22T18:15:20.510Z,10.37
2018-08-22T18:17:54.694Z,14.23
2018-08-22T18:20:30.971Z,14.63
2018-08-22T18:23:05.780Z,11.77
2018-08-22T18:25:37.457Z,16.17
2018-08-22T18:28:11.784Z,9.73
2018-08-22T18:30:43.371Z,11.70
2018-08-22T18:35:51.496Z,8.37
2018-08-22T18:38:23.502Z,12.03
2018-08-22T18:41:07.191Z,9.90
2018-08-22T18:43:37.546Z,10.87
2018-08-22T18:46:08.860Z,8.83
2018-08-22T18:48:43.073Z,9.57
2018-08-22T18:51:12.423Z,9.83
2018-08-22T18:53:42.874Z,12.57
2018-08-22T18:56:16.675Z,12.07
2018-08-22T18:58:54.720Z,8.07
2018-08-22T19:01:26.813Z,10.70
2018-08-22T19:03:59.582Z,10.07
2018-08-22T19:06:31.430Z,10.17
2018-08-22T19:09:02.135Z,9.03
2018-08-22T19:11:35.437Z,7.60
2018-08-22T19:14:08.443Z,10.13
2018-08-22T19:16:40.927Z,10.37
2018-08-22T19:19:14.378Z,8.57
2018-08-22T19:21:49.987Z,11.37
2018-08-22T19:24:26.619Z,7.97
2018-08-22T19:27:01.306Z,8.40
2018-08-22T19:29:37.921Z,11.67
2018-08-22T19:32:12.990Z,10.57
2018-08-22T19:34:46.280Z,10.37
2018-08-22T19:37:21.016Z,9.60
2018-08-22T19:40:04.800Z,10.13
2018-08-22T19:42:42.748Z,9.53
2018-08-22T19:45:17.976Z,10.63
2018-08-22T19:47:49.093Z,8.73
2018-08-22T19:50:20.410Z,8.87
2018-08-22T19:52:59.250Z,9.17
2018-08-22T19:55:34.922Z,9.20
2018-08-22T19:58:08.650Z,10.60
2018-08-22T20:00:43.065Z,9.87
2018-08-22T20:03:24.941Z,11.07
2018-08-22T20:05:56.348Z,10.70
2018-08-22T20:08:34.939Z,10.37
2018-08-22T20:11:07.816Z,9.83
2018-08-22T20:13:51.659Z,13.43
2018-08-22T20:16:29.864Z,8.97
2018-08-22T20:19:04.313Z,14.53
2018-08-22T20:21:40.856Z,9.13
2018-08-22T20:24:17.467Z,7.80
2018-08-22T20:26:54.617Z,9.60
2018-08-22T20:29:24.788Z,9.37
2018-08-22T20:32:02.829Z,10.57
2018-08-22T20:34:36.168Z,12.60
2018-08-22T20:37:08.732Z,13.10
2018-08-22T20:39:42.160Z,9.63
2018-08-22T20:42:20.327Z,8.03
2018-08-22T20:44:58.017Z,11.27
2018-08-22T20:47:32.888Z,9.00
2018-08-22T20:50:06.385Z,10.37
2018-08-22T20:52:37.171Z,11.83
2018-08-22T20:55:14.867Z,8.50
2018-08-22T20:57:46.145Z,10.07
2018-08-22T21:00:27.099Z,10.70
2018-08-22T21:03:01.338Z,9.13
2018-08-22T21:05:31.555Z,8.60
2018-08-22T21:08:03.747Z,10.13
2018-08-22T21:10:36.513Z,7.97
2018-08-22T21:13:17.592Z,12.07
2018-08-22T21:15:52.084Z,7.13
2018-08-22T21:18:25.785Z,12.37
2018-08-22T21:20:57.531Z,8.77
2018-08-22T21:23:28.272Z,9.17
2018-08-22T21:26:00.626Z,8.47
2018-08-22T21:28:39.377Z,9.50
2018-08-22T21:31:09.576Z,11.50
2018-08-22T21:33:45.632Z,11.53
2018-08-22T21:36:18.718Z,10.30
2018-08-22T21:38:54.614Z,11.50
2018-08-22T21:41:27.855Z,8.63
2018-08-22T21:44:01.216Z,9.13
2018-08-22T21:46:32.295Z,8.30
2018-08-22T21:49:11.108Z,8.43
2018-08-22T21:51:44.323Z,11.93
2018-08-22T21:54:18.690Z,9.70
2018-08-22T21:56:52.224Z,10.13
2018-08-22T21:59:24.356Z,9.63
2018-08-22T22:02:04.295Z,8.67
2018-08-22T22:04:36.686Z,8.07
2018-08-22T22:07:12.814Z,11.33
2018-08-22T22:09:45.058Z,8.07
2018-08-22T22:12:21.376Z,9.87
2018-08-22T22:14:55.111Z,9.00
2018-08-22T22:17:34.188Z,12.07
2018-08-22T22:20:13.577Z,9.00
2018-08-22T22:22:45.495Z,9.40
2018-08-22T22:25:20.555Z,5.93
2018-08-22T22:27:53.209Z,8.03
2018-08-22T22:30:26.893Z,7.87
2018-08-22T22:33:04.002Z,8.70
2018-08-22T22:35:42.343Z,7.67
2018-08-22T22:38:13.226Z,7.67
2018-08-22T22:40:43.974Z,12.03
2018-08-22T22:43:17.002Z,9.73
2018-08-22T22:45:49.463Z,9.23
2018-08-22T22:48:32.694Z,9.50
2018-08-22T22:51:08.200Z,11.67
2018-08-22T22:53:39.305Z,10.77
2018-08-22T22:56:12.425Z,9.00
2018-08-22T22:58:48.453Z,11.03
2018-08-22T23:01:20.060Z,9.40
2018-08-22T23:03:54.849Z,9.93
2018-08-22T23:06:34.578Z,10.43
2018-08-22T23:09:10.803Z,8.13
2018-08-22T23:11:51.502Z,12.20
2018-08-22T23:14:26.709Z,10.00
2018-08-22T23:17:00.960Z,11.37
2018-08-22T23:19:34.827Z,8.20
2018-08-22T23:22:10.356Z,6.90
2018-08-22T23:24:43.533Z,7.80
2018-08-22T23:27:16.118Z,6.83
2018-08-22T23:29:46.514Z,7.43
2018-08-22T23:32:18.655Z,9.07
2018-08-22T23:34:53.702Z,6.83
2018-08-22T23:37:29.553Z,7.73
2018-08-22T23:40:05.425Z,13.20
2018-08-22T23:42:39.276Z,8.10
2018-08-22T23:45:11.888Z,9.20
2018-08-22T23:54:31.475Z,8.03
2018-08-22T23:57:09.550Z,9.93
2018-08-22T23:59:44.128Z,8.80
